createdAt,value
2023-04-06T00:00:29.871Z,2.30
2023-04-06T00:02:58.223Z,2.20
2023-04-06T00:05:28.806Z,2.20
2023-04-06T00:07:57.097Z,2.20
2023-04-06T00:10:25.904Z,2.30
2023-04-06T00:12:54.273Z,2.40
2023-04-06T00:15:22.606Z,2.40
2023-04-06T00:17:51.268Z,2.50
2023-04-06T00:20:20.274Z,2.50
2023-04-06T00:22:50.001Z,2.50
2023-04-06T00:25:18.598Z,2.40
2023-04-06T00:27:46.889Z,2.40
2023-04-06T00:30:15.639Z,2.30
2023-04-06T00:32:44.059Z,2.30
2023-04-06T00:35:12.623Z,2.40
2023-04-06T00:37:41.141Z,2.40
2023-04-06T00:40:12.351Z,2.40
2023-04-06T00:42:40.825Z,2.40
2023-04-06T00:45:10.409Z,2.40
2023-04-06T00:47:38.923Z,2.50
2023-04-06T00:50:08.341Z,2.50
2023-04-06T00:52:36.837Z,2.50
2023-04-06T00:55:05.708Z,2.60
2023-04-06T00:57:35.480Z,2.60
2023-04-06T01:00:04.190Z,2.70
2023-04-06T01:02:32.652Z,2.80
2023-04-06T01:05:01.160Z,2.90
2023-04-06T01:07:29.505Z,2.80
2023-04-06T01:09:57.828Z,2.90
2023-04-06T01:12:26.578Z,2.90
2023-04-06T01:14:56.339Z,2.80
2023-04-06T01:17:24.933Z,2.90
2023-04-06T01:19:54.821Z,2.90
2023-04-06T01:22:26.250Z,2.80
2023-04-06T01:24:54.568Z,2.80
2023-04-06T01:27:23.027Z,2.80
2023-04-06T01:29:51.504Z,2.80
2023-04-06T01:32:19.786Z,2.80
2023-04-06T01:34:48.089Z,2.80
2023-04-06T01:37:16.399Z,2.90
2023-04-06T01:39:46.398Z,2.80
2023-04-06T01:42:14.735Z,2.80
2023-04-06T01:44:43.052Z,2.80
2023-04-06T01:47:11.396Z,2.70
2023-04-06T01:49:39.687Z,2.70
2023-04-06T01:52:08.004Z,2.60
2023-04-06T01:54:36.424Z,2.50
2023-04-06T01:57:06.660Z,2.50
2023-04-06T01:59:35.010Z,2.50
2023-04-06T02:02:03.415Z,2.40
2023-04-06T02:04:31.745Z,2.50
2023-04-06T02:07:00.128Z,2.50
2023-04-06T02:09:28.437Z,2.50
2023-04-06T02:11:56.760Z,2.50
2023-04-06T02:14:28.369Z,2.50
2023-04-06T02:16:56.820Z,2.40
2023-04-06T02:19:25.153Z,2.40
2023-04-06T02:21:53.456Z,2.50
2023-04-06T02:24:21.756Z,2.50
2023-04-06T02:26:50.251Z,2.50
2023-04-06T02:29:18.566Z,2.50
2023-04-06T02:31:48.332Z,2.40
2023-04-06T02:34:18.769Z,2.40
2023-04-06T02:36:47.607Z,2.20
2023-04-06T02:39:17.385Z,2.20
2023-04-06T02:41:45.712Z,2.20
2023-04-06T02:44:14.061Z,2.10
2023-04-06T02:46:42.631Z,2.10
2023-04-06T02:49:12.338Z,2.00
2023-04-06T02:51:40.640Z,1.90
2023-04-06T02:54:08.960Z,1.90
2023-04-06T02:56:37.305Z,1.90
2023-04-06T02:59:05.897Z,1.80
2023-04-06T03:01:34.370Z,1.80
2023-04-06T03:04:02.781Z,1.80
2023-04-06T03:06:32.571Z,1.80
2023-04-06T03:09:01.186Z,1.90
2023-04-06T03:11:29.509Z,2.00
2023-04-06T03:13:57.824Z,2.10
2023-04-06T03:16:26.213Z,2.20
2023-04-06T03:18:54.519Z,2.40
2023-04-06T03:21:22.775Z,2.50
2023-04-06T03:23:52.521Z,2.50
2023-04-06T03:26:20.847Z,2.40
2023-04-06T03:28:49.179Z,2.30
2023-04-06T03:31:17.600Z,2.20
2023-04-06T03:33:46.160Z,2.30
2023-04-06T03:36:14.463Z,2.30
2023-04-06T03:38:42.894Z,2.20
2023-04-06T03:41:12.673Z,2.10
2023-04-06T03:43:41.003Z,2.10
2023-04-06T03:46:09.387Z,2.10
2023-04-06T03:48:37.742Z,2.00
2023-04-06T03:51:06.434Z,2.10
2023-04-06T03:53:34.774Z,2.20
2023-04-06T03:56:04.768Z,2.20
2023-04-06T03:58:34.810Z,2.10
2023-04-06T04:01:03.086Z,2.10
2023-04-06T04:03:31.499Z,2.00
2023-04-06T04:05:59.985Z,1.90
2023-04-06T04:08:28.312Z,1.90
2023-04-06T04:10:56.643Z,1.90
2023-04-06T04:13:25.060Z,1.90
2023-04-06T04:15:55.028Z,1.80
2023-04-06T04:18:23.355Z,1.80
2023-04-06T04:20:51.619Z,1.70
2023-04-06T04:23:19.934Z,1.70
2023-04-06T04:25:48.280Z,1.70
2023-04-06T04:28:16.550Z,1.70
2023-04-06T04:30:44.907Z,1.70
2023-04-06T04:33:14.609Z,1.70
2023-04-06T04:35:42.959Z,1.70
2023-04-06T04:38:11.368Z,1.60
2023-04-06T04:40:39.687Z,1.70
2023-04-06T04:43:08.050Z,1.60
2023-04-06T04:45:36.425Z,1.70
2023-04-06T04:48:06.050Z,1.60
2023-04-06T04:50:35.848Z,1.60
2023-04-06T04:53:06.317Z,1.70
2023-04-06T04:55:34.917Z,1.80
2023-04-06T04:58:03.556Z,1.80
2023-04-06T05:00:32.581Z,1.80
2023-04-06T05:03:01.216Z,1.80
2023-04-06T05:05:29.684Z,1.70
2023-04-06T05:07:59.436Z,1.80
2023-04-06T05:10:27.751Z,1.80
2023-04-06T05:12:56.452Z,1.80
2023-04-06T05:15:24.768Z,1.70
2023-04-06T05:17:53.442Z,1.70
2023-04-06T05:20:21.816Z,1.60
2023-04-06T05:22:50.143Z,1.70
2023-04-06T05:25:19.924Z,1.60
2023-04-06T05:27:48.279Z,1.70
2023-04-06T05:30:16.906Z,1.80
2023-04-06T05:32:45.592Z,1.90
2023-04-06T05:35:14.265Z,1.90
2023-04-06T05:37:42.678Z,1.90
2023-04-06T05:40:11.834Z,2.00
2023-04-06T05:42:42.152Z,2.20
2023-04-06T05:45:12.017Z,2.30
2023-04-06T05:47:40.662Z,2.30
2023-04-06T05:50:09.852Z,2.40
2023-04-06T05:52:38.204Z,2.40
2023-04-06T05:55:08.855Z,2.50
2023-04-06T05:57:38.464Z,2.60
2023-04-06T06:00:10.956Z,2.80
2023-04-06T06:02:40.605Z,3.20
2023-04-06T06:05:09.911Z,3.70
2023-04-06T06:07:38.341Z,4.10
2023-04-06T06:10:07.358Z,4.50
2023-04-06T06:12:35.653Z,4.80
2023-04-06T06:15:03.947Z,5.20
2023-04-06T06:17:33.716Z,5.60
2023-04-06T06:20:02.012Z,6.00
2023-04-06T06:22:30.348Z,6.40
2023-04-06T06:24:58.727Z,6.70
2023-04-06T06:27:27.164Z,7.00
2023-04-06T06:29:55.655Z,6.90
2023-04-06T06:32:23.993Z,7.10
2023-04-06T06:34:53.735Z,7.00
2023-04-06T06:37:21.992Z,7.40
2023-04-06T06:39:50.289Z,8.00
2023-04-06T06:42:18.583Z,8.40
2023-04-06T06:44:46.857Z,8.90
2023-04-06T06:47:15.321Z,9.10
2023-04-06T06:49:43.609Z,9.70
2023-04-06T06:52:13.299Z,10.50
2023-04-06T06:54:41.604Z,11.20
2023-04-06T06:57:10.126Z,11.50
2023-04-06T06:59:38.495Z,11.10
2023-04-06T07:02:06.878Z,11.50
2023-04-06T07:04:35.212Z,11.70
2023-04-06T07:07:04.640Z,12.30
2023-04-06T07:09:34.481Z,12.20
2023-04-06T07:12:03.117Z,11.90
2023-04-06T07:14:31.448Z,12.00
2023-04-06T07:16:59.760Z,11.70
2023-04-06T07:19:28.229Z,12.20
2023-04-06T07:21:57.316Z,12.20
2023-04-06T07:24:25.597Z,12.70
2023-04-06T07:26:55.339Z,12.20
2023-04-06T07:29:24.019Z,12.00
2023-04-06T07:31:52.553Z,12.20
2023-04-06T07:34:21.123Z,12.20
2023-04-06T07:36:49.638Z,12.60
2023-04-06T07:39:17.910Z,12.40
2023-04-06T07:41:46.226Z,12.40
2023-04-06T07:44:16.108Z,12.70
2023-04-06T07:46:44.499Z,13.00
2023-04-06T07:49:13.275Z,13.80
2023-04-06T07:51:41.901Z,14.10
2023-04-06T07:54:10.236Z,13.40
2023-04-06T07:56:38.518Z,13.70
2023-04-06T07:59:06.917Z,14.00
2023-04-06T08:01:36.702Z,14.10
2023-04-06T08:04:05.367Z,14.20
2023-04-06T08:06:33.922Z,14.90
2023-04-06T08:09:02.257Z,14.70
2023-04-06T08:11:30.604Z,15.00
2023-04-06T08:13:59.519Z,15.00
2023-04-06T08:16:27.812Z,14.90
2023-04-06T08:18:57.609Z,14.70
2023-04-06T08:21:26.058Z,15.10
2023-04-06T08:23:54.466Z,15.90
2023-04-06T08:26:22.832Z,15.70
2023-04-06T08:28:51.461Z,15.90
2023-04-06T08:31:19.832Z,16.40
2023-04-06T08:33:48.295Z,16.20
2023-04-06T08:36:21.286Z,15.90
2023-04-06T08:38:50.072Z,16.80
2023-04-06T08:41:18.868Z,17.80
2023-04-06T08:43:50.066Z,17.70
2023-04-06T08:46:19.680Z,17.20
2023-04-06T08:48:50.904Z,17.50
2023-04-06T08:51:21.433Z,18.50
2023-04-06T08:53:51.010Z,19.20
2023-04-06T08:56:19.818Z,19.90
2023-04-06T08:58:48.361Z,21.00
2023-04-06T09:01:19.319Z,22.00
2023-04-06T09:03:50.802Z,23.00
2023-04-06T09:06:21.242Z,23.80
2023-04-06T09:08:49.616Z,25.00
2023-04-06T09:11:17.921Z,25.70
2023-04-06T09:13:50.754Z,26.00
2023-04-06T09:16:20.122Z,25.80
2023-04-06T09:18:49.008Z,25.80
2023-04-06T09:21:24.495Z,25.00
2023-04-06T09:24:02.146Z,25.40
2023-04-06T09:26:30.563Z,25.70
2023-04-06T09:29:02.057Z,25.70
2023-04-06T09:31:34.002Z,26.20
2023-04-06T09:34:03.266Z,26.90
2023-04-06T09:36:39.522Z,27.70
2023-04-06T09:39:08.423Z,26.70
2023-04-06T09:41:37.775Z,26.80
2023-04-06T09:44:07.707Z,27.10
2023-04-06T09:46:55.000Z,27.20
2023-04-06T09:49:29.494Z,27.60
2023-04-06T09:52:02.685Z,28.00
2023-04-06T09:54:33.013Z,28.00
2023-04-06T09:57:06.434Z,28.20
2023-04-06T09:59:45.149Z,28.00
2023-04-06T10:02:19.596Z,28.60
2023-04-06T10:04:58.148Z,28.90
2023-04-06T10:07:28.720Z,29.30
2023-04-06T10:09:58.089Z,28.70
2023-04-06T10:12:26.523Z,29.10
2023-04-06T10:14:55.650Z,29.10
2023-04-06T10:17:25.434Z,29.30
2023-04-06T10:20:01.167Z,29.60
2023-04-06T10:22:37.946Z,29.60
2023-04-06T10:25:06.885Z,29.80
2023-04-06T10:27:35.385Z,29.60
2023-04-06T10:30:05.235Z,29.70
2023-04-06T10:32:38.096Z,30.10
2023-04-06T10:35:10.865Z,29.60
2023-04-06T10:37:52.415Z,29.90
2023-04-06T10:40:26.513Z,30.10
2023-04-06T10:42:55.703Z,29.90
2023-04-06T10:45:25.384Z,29.40
2023-04-06T10:47:55.778Z,29.70
2023-04-06T10:50:24.974Z,29.70
2023-04-06T10:53:03.577Z,29.80
2023-04-06T10:55:33.053Z,30.00
2023-04-06T10:58:01.331Z,30.30
2023-04-06T11:00:39.413Z,30.60
2023-04-06T11:03:11.664Z,30.80
2023-04-06T11:05:39.972Z,30.80
2023-04-06T11:08:10.010Z,30.90
2023-04-06T11:10:38.621Z,31.00
2023-04-06T11:13:08.580Z,31.30
2023-04-06T11:15:38.987Z,31.30
2023-04-06T11:18:07.956Z,30.80
2023-04-06T11:20:36.425Z,30.10
2023-04-06T11:23:04.791Z,29.60
2023-04-06T11:25:34.590Z,29.30
2023-04-06T11:28:03.062Z,29.40
2023-04-06T11:30:32.484Z,29.30
2023-04-06T11:33:04.545Z,29.40
2023-04-06T11:35:34.969Z,29.80
2023-04-06T11:38:05.769Z,29.90
2023-04-06T11:40:35.528Z,29.80
2023-04-06T11:43:07.960Z,30.10
2023-04-06T11:45:43.401Z,30.00
2023-04-06T11:48:21.906Z,30.00
2023-04-06T11:50:50.715Z,29.60
2023-04-06T11:53:19.051Z,29.40
2023-04-06T11:55:48.863Z,29.40
2023-04-06T11:58:17.201Z,29.50
2023-04-06T12:00:47.899Z,29.50
2023-04-06T12:03:16.630Z,29.30
2023-04-06T12:05:46.302Z,28.90
2023-04-06T12:08:14.622Z,28.70
2023-04-06T12:10:42.896Z,28.80
2023-04-06T12:13:12.575Z,28.70
2023-04-06T12:15:41.006Z,28.30
2023-04-06T12:18:09.600Z,27.90
2023-04-06T12:20:37.953Z,27.40
2023-04-06T12:23:06.247Z,27.10
2023-04-06T12:25:34.531Z,27.10
2023-04-06T12:28:02.917Z,27.20
2023-04-06T12:30:33.188Z,27.20
2023-04-06T12:33:01.686Z,27.40
2023-04-06T12:35:30.126Z,27.20
2023-04-06T12:37:58.422Z,27.10
2023-04-06T12:40:26.799Z,26.70
2023-04-06T12:42:55.100Z,26.90
2023-04-06T12:45:23.454Z,26.60
2023-04-06T12:47:53.586Z,26.70
2023-04-06T12:50:21.932Z,26.90
2023-04-06T12:52:50.501Z,27.20
2023-04-06T12:55:19.018Z,27.30
2023-04-06T12:57:47.705Z,27.30
2023-04-06T13:00:17.046Z,27.60
2023-04-06T13:02:48.267Z,28.10
2023-04-06T13:05:19.928Z,27.90
2023-04-06T13:07:48.783Z,28.00
2023-04-06T13:10:17.304Z,28.20
2023-04-06T13:12:45.628Z,28.50
2023-04-06T13:15:14.123Z,28.40
2023-04-06T13:17:42.490Z,28.30
2023-04-06T13:20:11.741Z,28.20
2023-04-06T13:22:41.440Z,28.00
2023-04-06T13:25:10.451Z,27.80
2023-04-06T13:27:38.779Z,27.50
2023-04-06T13:30:08.592Z,27.40
2023-04-06T13:32:37.497Z,27.20
2023-04-06T13:35:08.357Z,27.30
2023-04-06T13:37:37.276Z,27.50
2023-04-06T13:40:08.553Z,27.50
2023-04-06T13:42:37.258Z,27.30
2023-04-06T13:45:06.321Z,27.10
2023-04-06T13:47:34.694Z,27.10
2023-04-06T13:50:03.077Z,27.30
2023-04-06T13:52:31.366Z,27.30
2023-04-06T13:54:59.600Z,27.40
2023-04-06T13:57:30.701Z,27.30
2023-04-06T13:59:58.858Z,27.50
2023-04-06T14:02:28.571Z,27.40
2023-04-06T14:04:56.875Z,27.40
2023-04-06T14:07:25.052Z,27.10
2023-04-06T14:09:53.237Z,27.10
2023-04-06T14:12:21.575Z,26.90
2023-04-06T14:14:51.228Z,26.80
2023-04-06T14:17:19.383Z,26.90
2023-04-06T14:19:47.980Z,26.80
2023-04-06T14:22:16.216Z,27.20
2023-04-06T14:24:44.903Z,27.30
2023-04-06T14:27:13.707Z,27.40
2023-04-06T14:29:41.952Z,27.00
2023-04-06T14:32:12.590Z,27.20
2023-04-06T14:34:40.779Z,27.10
2023-04-06T14:37:09.045Z,27.00
2023-04-06T14:39:37.267Z,26.90
2023-04-06T14:42:05.559Z,26.60
2023-04-06T14:44:37.649Z,26.20
2023-04-06T14:47:06.627Z,25.90
2023-04-06T14:49:36.389Z,25.80
2023-04-06T14:52:05.072Z,26.00
2023-04-06T14:54:33.367Z,25.90
2023-04-06T14:57:01.617Z,25.70
2023-04-06T15:02:04.272Z,24.50
2023-04-06T15:04:32.633Z,24.20
2023-04-06T15:07:02.240Z,24.00
2023-04-06T15:09:30.433Z,23.80
2023-04-06T15:11:58.600Z,23.90
2023-04-06T15:14:26.884Z,23.80
2023-04-06T15:16:55.044Z,23.90
2023-04-06T15:19:23.552Z,23.90
2023-04-06T15:21:51.715Z,23.60
2023-04-06T15:24:21.308Z,23.50
2023-04-06T15:26:49.538Z,23.10
2023-04-06T15:29:17.722Z,22.70
2023-04-06T15:31:45.936Z,21.90
2023-04-06T15:34:14.162Z,21.50
2023-04-06T15:36:44.500Z,21.00
2023-04-06T15:39:13.953Z,20.60
2023-04-06T15:41:43.534Z,20.10
2023-04-06T15:44:11.704Z,19.50
2023-04-06T15:46:39.932Z,19.20
2023-04-06T15:49:08.093Z,18.90
2023-04-06T15:51:37.504Z,18.70
2023-04-06T15:54:05.854Z,18.40
2023-04-06T15:56:34.164Z,18.40
2023-04-06T15:59:04.410Z,18.40
2023-04-06T16:01:32.661Z,18.30
2023-04-06T16:04:00.952Z,18.00
2023-04-06T16:06:29.194Z,17.60
2023-04-06T16:08:57.358Z,17.20
2023-04-06T16:11:26.225Z,17.10
2023-04-06T16:13:55.483Z,17.00
2023-04-06T16:16:25.568Z,16.90
2023-04-06T16:18:53.812Z,16.80
2023-04-06T16:21:21.997Z,16.80
2023-04-06T16:23:50.397Z,16.70
2023-04-06T16:26:19.153Z,16.50
2023-04-06T16:28:47.549Z,16.40
2023-04-06T16:31:21.214Z,16.30
2023-04-06T16:33:51.596Z,16.20
2023-04-06T16:36:24.388Z,15.90
2023-04-06T16:38:52.859Z,15.70
2023-04-06T16:41:21.580Z,15.60
2023-04-06T16:43:50.252Z,15.40
2023-04-06T16:46:18.577Z,15.30
2023-04-06T16:48:46.855Z,15.10
2023-04-06T16:51:18.772Z,15.00
2023-04-06T16:53:47.901Z,14.90
2023-04-06T16:56:16.534Z,14.80
2023-04-06T16:58:45.403Z,14.70
2023-04-06T17:01:20.781Z,14.60
2023-04-06T17:03:49.394Z,14.50
2023-04-06T17:06:19.790Z,14.40
2023-04-06T17:08:49.357Z,14.20
2023-04-06T17:11:23.422Z,14.10
2023-04-06T17:13:56.212Z,14.00
2023-04-06T17:16:25.175Z,13.90
2023-04-06T17:18:54.905Z,13.80
2023-04-06T17:21:24.512Z,13.70
2023-04-06T17:23:52.698Z,13.60
2023-04-06T17:26:21.743Z,13.40
2023-04-06T17:28:49.941Z,13.30
2023-04-06T17:31:18.198Z,13.20
2023-04-06T17:33:47.572Z,13.20
2023-04-06T17:36:16.201Z,13.10
2023-04-06T17:38:46.533Z,13.00
2023-04-06T17:41:15.115Z,13.00
2023-04-06T17:43:43.331Z,12.90
2023-04-06T17:46:11.699Z,12.80
2023-04-06T17:48:39.911Z,12.70
2023-04-06T17:51:08.443Z,12.50
2023-04-06T17:53:37.184Z,12.40
2023-04-06T17:56:07.436Z,12.30
2023-04-06T17:58:35.636Z,12.20
2023-04-06T18:01:08.416Z,12.10
2023-04-06T18:03:36.771Z,11.90
2023-04-06T18:06:12.678Z,11.80
2023-04-06T18:08:41.662Z,11.60
2023-04-06T18:11:17.177Z,11.70
2023-04-06T18:13:45.452Z,11.30
2023-04-06T18:16:13.766Z,11.10
2023-04-06T18:18:42.013Z,11.00
2023-04-06T18:21:10.374Z,10.80
2023-04-06T18:23:38.816Z,10.70
2023-04-06T18:26:07.795Z,10.50
2023-04-06T18:28:37.401Z,10.40
2023-04-06T18:31:05.699Z,10.30
2023-04-06T18:33:33.942Z,10.20
2023-04-06T18:36:02.096Z,10.20
2023-04-06T18:38:30.449Z,10.10
2023-04-06T18:40:58.984Z,10.00
2023-04-06T18:43:27.921Z,9.90
2023-04-06T18:45:57.605Z,9.90
2023-04-06T18:48:25.822Z,9.90
2023-04-06T18:50:54.439Z,9.90
2023-04-06T18:53:22.667Z,9.80
2023-04-06T18:55:51.835Z,9.80
2023-04-06T18:58:20.387Z,9.80
2023-04-06T19:00:48.699Z,9.70
2023-04-06T19:03:20.567Z,9.70
2023-04-06T19:05:50.493Z,9.60
2023-04-06T19:08:18.730Z,9.60
2023-04-06T19:10:49.265Z,9.60
2023-04-06T19:13:17.625Z,9.50
2023-04-06T19:15:45.792Z,9.40
2023-04-06T19:18:14.035Z,9.40
2023-04-06T19:20:43.682Z,9.30
2023-04-06T19:23:18.542Z,9.20
2023-04-06T19:25:47.029Z,9.20
2023-04-06T19:28:15.292Z,9.10
2023-04-06T19:30:44.086Z,9.10
2023-04-06T19:33:12.978Z,9.00
2023-04-06T19:35:41.178Z,9.00
2023-04-06T19:38:10.800Z,9.10
2023-04-06T19:40:39.026Z,9.00
2023-04-06T19:43:07.240Z,9.00
2023-04-06T19:45:35.428Z,9.00
2023-04-06T19:48:03.704Z,9.00
2023-04-06T19:50:33.430Z,9.00
2023-04-06T19:53:02.904Z,9.00
2023-04-06T19:55:32.473Z,9.00
2023-04-06T19:58:00.788Z,9.00
2023-04-06T20:00:29.008Z,9.00
2023-04-06T20:02:57.557Z,9.00
2023-04-06T20:05:26.057Z,9.00
2023-04-06T20:07:54.273Z,9.00
2023-04-06T20:10:22.542Z,8.90
2023-04-06T20:12:52.126Z,8.80
2023-04-06T20:15:20.500Z,8.80
2023-04-06T20:17:48.763Z,8.80
2023-04-06T20:20:16.995Z,8.80
2023-04-06T20:22:46.253Z,8.80
2023-04-06T20:25:14.772Z,8.90
2023-04-06T20:27:42.956Z,8.80
2023-04-06T20:30:15.062Z,8.80
2023-04-06T20:32:43.417Z,8.80
2023-04-06T20:35:11.782Z,8.80
2023-04-06T20:37:40.059Z,8.80
2023-04-06T20:40:09.369Z,8.70
2023-04-06T20:42:38.229Z,8.70
2023-04-06T20:45:07.670Z,8.70
2023-04-06T20:47:37.347Z,8.70
2023-04-06T20:50:06.142Z,8.70
2023-04-06T20:52:34.764Z,8.70
2023-04-06T20:55:03.018Z,8.60
2023-04-06T20:57:32.168Z,8.60
2023-04-06T21:00:01.247Z,8.60
2023-04-06T21:02:29.620Z,8.60
2023-04-06T21:04:59.378Z,8.60
2023-04-06T21:07:27.809Z,8.60
2023-04-06T21:09:56.544Z,8.70
2023-04-06T21:12:24.766Z,8.70
2023-04-06T21:14:52.964Z,8.70
2023-04-06T21:17:21.405Z,8.80
2023-04-06T21:19:49.677Z,8.80
2023-04-06T21:22:19.260Z,8.80
2023-04-06T21:24:47.615Z,8.80
2023-04-06T21:27:15.772Z,8.70
2023-04-06T21:29:44.008Z,8.70
2023-04-06T21:32:12.263Z,8.60
2023-04-06T21:34:45.710Z,8.60
2023-04-06T21:37:15.566Z,8.50
2023-04-06T21:39:46.347Z,8.60
2023-04-06T21:42:14.573Z,8.50
2023-04-06T21:44:42.776Z,8.60
2023-04-06T21:47:11.021Z,8.60
2023-04-06T21:49:39.340Z,8.60
2023-04-06T21:52:08.049Z,8.60
2023-04-06T21:54:36.616Z,8.60
2023-04-06T21:57:06.240Z,8.60
2023-04-06T21:59:34.653Z,8.60
2023-04-06T22:02:02.945Z,8.60
2023-04-06T22:04:32.680Z,8.70
2023-04-06T22:07:00.980Z,8.70
2023-04-06T22:09:29.196Z,8.80
2023-04-06T22:11:57.360Z,8.50
2023-04-06T22:14:27.033Z,8.70
2023-04-06T22:16:55.240Z,8.60
2023-04-06T22:19:23.476Z,8.70
2023-04-06T22:21:51.706Z,8.70
2023-04-06T22:24:20.240Z,8.70
2023-04-06T22:26:48.610Z,8.70
2023-04-06T22:29:16.846Z,8.70
2023-04-06T22:31:47.316Z,8.70
2023-04-06T22:34:15.920Z,8.80
2023-04-06T22:36:44.215Z,8.80
2023-04-06T22:39:12.521Z,8.80
2023-04-06T22:41:40.722Z,8.80
2023-04-06T22:44:09.780Z,8.90
2023-04-06T22:46:37.952Z,8.90
2023-04-06T22:49:07.586Z,8.90
2023-04-06T22:51:35.740Z,8.90
2023-04-06T22:54:03.947Z,8.90
2023-04-06T22:56:32.168Z,8.90
2023-04-06T22:59:00.393Z,8.80
2023-04-06T23:01:29.707Z,8.70
2023-04-06T23:03:58.188Z,8.70
2023-04-06T23:06:28.329Z,8.70
2023-04-06T23:08:56.501Z,8.60
2023-04-06T23:11:24.671Z,8.50
2023-04-06T23:13:52.907Z,8.50
2023-04-06T23:16:21.452Z,8.50
2023-04-06T23:18:49.808Z,8.60
2023-04-06T23:21:17.990Z,8.70
2023-04-06T23:23:47.638Z,8.70
2023-04-06T23:26:15.828Z,8.70
2023-04-06T23:28:43.988Z,8.70
2023-04-06T23:31:12.161Z,8.70
2023-04-06T23:33:40.481Z,8.70
2023-04-06T23:36:08.931Z,8.70
2023-04-06T23:38:37.275Z,8.70
2023-04-06T23:41:07.066Z,8.60
2023-04-06T23:43:35.250Z,8.70
2023-04-06T23:46:03.476Z,8.70
2023-04-06T23:48:31.792Z,8.80
2023-04-06T23:51:00.006Z,8.80
2023-04-06T23:53:28.277Z,8.90
2023-04-06T23:55:56.510Z,9.00
2023-04-06T23:58:26.254Z,9.00
